Time;durP1;ratioP1;P1;durP2;ratioP2;P2;SDS_P1;SDS_P2;PMS_P1;PMS_P2;Temp;Humidity;BMP_temperature;BMP_pressure;BME280_temperature;BME280_humidity;BME280_pressure;Samples;Min_cycle;Max_cycle;Signal;HPM_P1;HPM_P2
2022/10/13 00:00:19;;;;;;;16.85;7.28;;;14.50;99.90;;;;;;4085589;29;20199;-94
2022/10/13 00:02:19;;;;;;;21.63;8.18;;;14.50;99.90;;;;;;4085907;28;20311;-95
2022/10/13 00:04:20;;;;;;;17.10;7.38;;;14.50;99.90;;;;;;4085453;29;20178;-95
2022/10/13 00:06:23;;;;;;;15.65;7.53;;;14.40;99.90;;;;;;4085392;29;20190;-95
2022/10/13 00:08:25;;;;;;;20.27;7.90;;;14.40;99.90;;;;;;4085339;29;20179;-95
2022/10/13 00:10:26;;;;;;;17.77;7.50;;;14.40;99.90;;;;;;4101163;28;20206;-91
2022/10/13 00:12:27;;;;;;;16.23;7.57;;;14.40;99.90;;;;;;4101186;28;20183;-88
2022/10/13 00:14:27;;;;;;;21.10;8.38;;;14.40;99.90;;;;;;4085286;29;20231;-94
2022/10/13 00:16:30;;;;;;;14.95;7.47;;;14.40;99.90;;;;;;4101121;28;20218;-88
2022/10/13 00:18:30;;;;;;;14.48;7.43;;;14.30;99.90;;;;;;4085240;29;20198;-89
2022/10/13 00:20:32;;;;;;;15.23;7.45;;;14.30;99.90;;;;;;4085130;28;20199;-91
2022/10/13 00:22:32;;;;;;;20.30;7.72;;;14.30;99.90;;;;;;4085063;29;20215;-92
2022/10/13 00:24:33;;;;;;;20.75;7.55;;;14.30;99.90;;;;;;4101056;28;20181;-95
2022/10/13 00:26:34;;;;;;;20.17;8.00;;;14.20;99.90;;;;;;4085054;29;20187;-95
2022/10/13 00:28:35;;;;;;;16.55;7.75;;;14.30;99.90;;;;;;4100968;28;20584;-95
2022/10/13 00:30:37;;;;;;;13.20;8.20;;;14.30;99.90;;;;;;4084722;29;20282;-89
2022/10/13 00:32:37;;;;;;;22.42;9.40;;;14.30;99.90;;;;;;4100923;28;20257;-95
2022/10/13 00:34:39;;;;;;;18.50;8.20;;;14.30;99.90;;;;;;4085089;29;20195;-89
2022/10/13 00:36:40;;;;;;;14.93;7.90;;;14.20;99.90;;;;;;4084797;29;20182;-88
2022/10/13 00:38:41;;;;;;;20.85;8.55;;;14.20;99.90;;;;;;4085008;29;20179;-94
2022/10/13 00:40:48;;;;;;;19.02;8.00;;;14.10;99.90;;;;;;4100669;28;20202;-91
2022/10/13 00:42:48;;;;;;;18.25;7.90;;;14.10;99.90;;;;;;4084628;28;20225;-89
2022/10/13 00:45:04;;;;;;;17.60;8.27;;;14.30;99.90;;;;;;4084730;29;20659;-94
2022/10/13 00:47:05;;;;;;;30.13;8.43;;;14.20;99.90;;;;;;4084727;29;20587;-88
2022/10/13 00:49:13;;;;;;;17.15;7.45;;;14.20;99.90;;;;;;4084749;29;20215;-88
2022/10/13 00:51:23;;;;;;;20.75;8.73;;;14.30;99.90;;;;;;4085090;28;20207;-94
2022/10/13 00:53:29;;;;;;;22.83;8.10;;;14.20;99.90;;;;;;4084931;28;20254;-89
2022/10/13 00:55:32;;;;;;;13.73;7.43;;;14.10;99.90;;;;;;4085308;28;20179;-94
2022/10/13 00:57:34;;;;;;;18.67;7.55;;;14.20;99.90;;;;;;4084630;28;20172;-95
2022/10/13 00:59:37;;;;;;;21.75;8.05;;;14.20;99.90;;;;;;4100590;28;20193;-94
2022/10/13 01:01:38;;;;;;;20.73;7.82;;;14.20;99.90;;;;;;4084359;29;20216;-91
2022/10/13 01:03:39;;;;;;;15.70;7.97;;;14.30;99.90;;;;;;4084723;28;20202;-93
2022/10/13 01:05:41;;;;;;;19.02;8.23;;;14.40;99.90;;;;;;4084794;29;20194;-96
2022/10/13 01:07:43;;;;;;;15.30;7.55;;;14.30;99.90;;;;;;4084996;29;20214;-95
2022/10/13 01:09:44;;;;;;;14.70;7.78;;;14.30;99.90;;;;;;4084816;29;20687;-88
2022/10/13 01:12:02;;;;;;;19.17;7.93;;;14.10;99.90;;;;;;4084516;29;20183;-93
2022/10/13 01:14:06;;;;;;;16.13;8.38;;;14.10;99.90;;;;;;4084652;29;20211;-94
2022/10/13 01:16:14;;;;;;;19.67;8.32;;;14.10;99.90;;;;;;4085121;29;20180;-93
2022/10/13 01:18:47;;;;;;;17.85;8.25;;;14.10;99.90;;;;;;4084890;29;20202;-94
2022/10/13 01:21:17;;;;;;;16.25;8.68;;;14.10;99.90;;;;;;4080856;29;20637;-88
2022/10/13 01:23:43;;;;;;;20.58;8.45;;;14.00;99.90;;;;;;4085473;29;20199;-92
2022/10/13 01:26:21;;;;;;;14.48;7.85;;;14.00;99.90;;;;;;4085274;29;20187;-89
2022/10/13 01:28:57;;;;;;;18.90;8.00;;;13.90;99.90;;;;;;4085474;29;20183;-87
2022/10/13 01:31:05;;;;;;;16.42;8.05;;;13.80;99.90;;;;;;4085806;29;20227;-95
2022/10/13 01:33:16;;;;;;;15.50;8.43;;;13.70;99.90;;;;;;4084445;28;20687;-92
2022/10/13 01:35:36;;;;;;;21.25;8.98;;;13.80;99.90;;;;;;4085235;28;20167;-96
2022/10/13 01:37:52;;;;;;;18.45;9.32;;;13.80;99.90;;;;;;4084684;28;20175;-91
2022/10/13 01:40:23;;;;;;;16.50;8.65;;;13.80;99.90;;;;;;4085654;28;20179;-95
2022/10/13 01:42:31;;;;;;;18.52;8.57;;;13.80;99.90;;;;;;4084476;29;20294;-95
2022/10/13 01:44:37;;;;;;;19.70;9.07;;;13.90;99.90;;;;;;4084809;28;20203;-90
2022/10/13 01:46:39;;;;;;;18.67;9.05;;;13.90;99.90;;;;;;4084500;28;20540;-94
2022/10/13 01:48:44;;;;;;;20.48;8.95;;;14.10;99.90;;;;;;4101218;28;20175;-95
2022/10/13 01:50:45;;;;;;;19.85;9.10;;;14.00;99.90;;;;;;4101735;28;20371;-94
2022/10/13 01:52:48;;;;;;;16.27;8.90;;;14.00;99.90;;;;;;4086895;29;20175;-96
2022/10/13 01:54:51;;;;;;;20.10;8.85;;;14.00;99.90;;;;;;4086228;29;20275;-95
2022/10/13 01:56:55;;;;;;;20.10;9.10;;;14.10;99.90;;;;;;4102855;28;20265;-96
2022/10/13 01:59:00;;;;;;;18.85;9.10;;;14.10;99.90;;;;;;4103664;28;20185;-89
2022/10/13 02:01:27;;;;;;;14.32;8.75;;;14.10;99.90;;;;;;4103048;28;20293;-95
2022/10/13 02:04:03;;;;;;;18.98;8.85;;;14.10;99.90;;;;;;4087342;29;20176;-94
2022/10/13 02:06:28;;;;;;;18.48;8.98;;;14.00;99.90;;;;;;4039332;29;20190;-92
2022/10/13 02:08:41;;;;;;;17.45;9.15;;;14.00;99.90;;;;;;4088171;29;20232;-96
2022/10/13 02:11:08;;;;;;;19.95;9.30;;;13.90;99.90;;;;;;4087379;29;20219;-95
2022/10/13 02:13:14;;;;;;;16.67;9.63;;;13.90;99.90;;;;;;4086320;28;20191;-90
2022/10/13 02:15:20;;;;;;;18.25;9.35;;;13.90;99.90;;;;;;4086881;29;20179;-95
2022/10/13 02:17:20;;;;;;;22.52;9.75;;;13.90;99.90;;;;;;4107109;28;20182;-94
2022/10/13 02:19:22;;;;;;;18.17;9.75;;;13.90;99.90;;;;;;4109875;28;20175;-91
2022/10/13 02:21:23;;;;;;;19.75;10.40;;;13.90;99.90;;;;;;4097729;29;20214;-95
2022/10/13 02:23:26;;;;;;;20.98;9.65;;;14.00;99.90;;;;;;4098827;29;20187;-92
2022/10/13 02:25:28;;;;;;;24.50;9.68;;;13.90;99.90;;;;;;4096642;28;20172;-88
2022/10/13 02:27:29;;;;;;;23.45;9.95;;;13.90;99.90;;;;;;4097881;28;20186;-93
2022/10/13 02:29:29;;;;;;;22.10;10.43;;;13.90;99.90;;;;;;4098821;28;20650;-95
2022/10/13 02:31:30;;;;;;;16.88;9.60;;;13.90;99.90;;;;;;4097200;29;20183;-95
2022/10/13 02:33:31;;;;;;;23.45;10.55;;;13.80;99.90;;;;;;4099176;29;20172;-93
2022/10/13 02:35:32;;;;;;;20.02;10.27;;;13.80;99.90;;;;;;4098133;29;20156;-89
2022/10/13 02:37:34;;;;;;;21.40;10.50;;;13.80;99.90;;;;;;4113703;28;20536;-95
2022/10/13 02:39:35;;;;;;;21.40;10.30;;;13.70;99.90;;;;;;4096816;29;20180;-90
2022/10/13 02:41:36;;;;;;;25.73;10.98;;;13.70;99.90;;;;;;4098922;29;20255;-92
2022/10/13 02:43:37;;;;;;;20.75;10.60;;;13.70;99.90;;;;;;4097392;28;20289;-90
2022/10/13 02:45:38;;;;;;;20.65;11.38;;;13.70;99.90;;;;;;4113656;28;20179;-95
2022/10/13 02:47:38;;;;;;;23.20;11.15;;;13.70;99.90;;;;;;4094239;29;20179;-96
2022/10/13 02:49:39;;;;;;;20.27;10.35;;;13.50;99.90;;;;;;4087563;29;20195;-96
2022/10/13 02:51:40;;;;;;;18.88;10.73;;;13.60;99.90;;;;;;4086753;29;20210;-95
2022/10/13 02:53:40;;;;;;;19.92;10.82;;;13.60;99.90;;;;;;4087462;29;20278;-95
2022/10/13 02:55:41;;;;;;;24.42;10.80;;;13.60;99.90;;;;;;4086682;29;20254;-94
2022/10/13 02:57:42;;;;;;;21.60;10.73;;;13.50;99.90;;;;;;4086535;29;20172;-94
2022/10/13 03:01:44;;;;;;;22.75;11.02;;;13.50;99.90;;;;;;4071070;29;20212;-89
2022/10/13 03:03:44;;;;;;;24.08;11.05;;;13.60;99.90;;;;;;4087390;29;20249;-91
2022/10/13 03:05:45;;;;;;;29.98;11.88;;;13.60;99.90;;;;;;4102054;28;20187;-94
2022/10/13 03:07:46;;;;;;;26.65;11.00;;;13.60;99.90;;;;;;4087410;29;20175;-94
2022/10/13 03:09:46;;;;;;;19.02;10.85;;;13.60;99.90;;;;;;4103694;28;20246;-95
2022/10/13 03:11:47;;;;;;;27.02;11.38;;;13.60;99.90;;;;;;4086915;29;20172;-89
2022/10/13 03:13:48;;;;;;;19.42;10.95;;;13.60;99.90;;;;;;4103266;28;20183;-95
2022/10/13 03:15:49;;;;;;;27.85;11.10;;;13.50;99.90;;;;;;4086602;29;20237;-88
2022/10/13 03:17:50;;;;;;;27.17;11.23;;;13.60;99.90;;;;;;4087130;29;20553;-95
2022/10/13 03:19:51;;;;;;;27.20;11.32;;;13.50;99.90;;;;;;4087455;29;20216;-94
2022/10/13 03:21:52;;;;;;;18.55;10.30;;;13.50;99.90;;;;;;4102030;28;20211;-94
2022/10/13 03:23:52;;;;;;;21.30;11.57;;;13.50;99.90;;;;;;4086471;29;20171;-95
2022/10/13 03:25:55;;;;;;;25.50;11.70;;;13.50;99.90;;;;;;4104209;28;20203;-94
2022/10/13 03:27:56;;;;;;;27.88;12.43;;;13.60;99.90;;;;;;4088003;29;20603;-92
2022/10/13 03:29:56;;;;;;;25.17;12.00;;;13.70;99.90;;;;;;4106087;28;20178;-95
2022/10/13 03:31:57;;;;;;;28.80;11.85;;;13.60;99.90;;;;;;4086363;29;20179;-94
2022/10/13 03:33:58;;;;;;;25.63;11.60;;;13.60;99.90;;;;;;4102602;28;20219;-93
2022/10/13 03:36:04;;;;;;;25.13;12.05;;;13.60;99.90;;;;;;4087217;29;20180;-95
2022/10/13 03:38:05;;;;;;;21.80;12.18;;;13.70;99.90;;;;;;4087738;29;20168;-95
2022/10/13 03:40:07;;;;;;;24.48;11.88;;;13.60;99.90;;;;;;4086188;29;20191;-89
2022/10/13 03:42:09;;;;;;;24.23;12.32;;;13.70;99.90;;;;;;4086783;29;20211;-92
2022/10/13 03:44:12;;;;;;;24.92;11.75;;;13.80;99.90;;;;;;4087037;29;20182;-92
2022/10/13 03:46:16;;;;;;;26.40;12.55;;;13.70;99.90;;;;;;4087903;29;20628;-88
2022/10/13 03:48:19;;;;;;;22.70;11.95;;;13.60;99.90;;;;;;4087925;29;20210;-89
2022/10/13 03:50:20;;;;;;;29.17;13.48;;;13.50;99.90;;;;;;4087052;29;20192;-94
2022/10/13 03:52:21;;;;;;;20.27;11.23;;;13.50;99.90;;;;;;4086992;29;20172;-92
2022/10/13 03:54:23;;;;;;;25.20;12.70;;;13.50;99.90;;;;;;4086640;29;20183;-95
2022/10/13 03:56:27;;;;;;;26.83;12.27;;;13.50;99.90;;;;;;4087286;29;20179;-89
2022/10/13 03:58:28;;;;;;;24.00;11.60;;;13.40;99.90;;;;;;4086178;29;20180;-88
2022/10/13 04:00:29;;;;;;;29.33;12.77;;;13.40;99.90;;;;;;4101590;28;20209;-96
2022/10/13 04:02:29;;;;;;;30.20;13.18;;;13.40;99.90;;;;;;4085621;29;20596;-95
2022/10/13 04:04:34;;;;;;;32.17;13.15;;;13.50;99.90;;;;;;4102291;28;20182;-92
2022/10/13 04:06:34;;;;;;;26.50;13.07;;;13.50;99.90;;;;;;4087259;29;20175;-94
2022/10/13 04:08:35;;;;;;;26.70;12.70;;;13.40;99.90;;;;;;4102037;29;20170;-95
2022/10/13 04:10:36;;;;;;;28.13;13.80;;;13.30;99.90;;;;;;4086557;29;20206;-92
2022/10/13 04:12:37;;;;;;;21.45;13.40;;;13.40;99.90;;;;;;4102642;28;20183;-89
2022/10/13 04:14:38;;;;;;;22.55;13.00;;;13.30;99.90;;;;;;4086314;29;20188;-89
2022/10/13 04:16:41;;;;;;;29.23;13.05;;;13.40;99.90;;;;;;4101438;28;20544;-93
2022/10/13 04:18:43;;;;;;;26.92;13.45;;;13.30;99.90;;;;;;4085409;29;20274;-96
2022/10/13 04:20:44;;;;;;;30.63;14.82;;;13.20;99.90;;;;;;4085167;29;20187;-94
2022/10/13 04:22:45;;;;;;;26.73;14.02;;;13.30;99.90;;;;;;4101195;28;20284;-90
2022/10/13 04:24:45;;;;;;;28.63;13.95;;;13.30;99.90;;;;;;4085695;29;20207;-91
2022/10/13 04:26:46;;;;;;;22.35;13.45;;;13.30;99.90;;;;;;4085483;29;20171;-90
2022/10/13 04:28:48;;;;;;;28.02;13.75;;;13.30;99.90;;;;;;4085643;29;20172;-89
2022/10/13 04:30:49;;;;;;;26.08;13.95;;;13.40;99.90;;;;;;4085558;29;20214;-94
2022/10/13 04:32:50;;;;;;;24.67;14.15;;;13.30;99.90;;;;;;4102026;28;20218;-96
2022/10/13 04:34:51;;;;;;;23.77;13.48;;;13.30;99.90;;;;;;4085935;29;20227;-94
2022/10/13 04:36:51;;;;;;;31.17;13.52;;;13.30;99.90;;;;;;4086317;29;20252;-96
2022/10/13 04:38:53;;;;;;;26.48;14.35;;;13.30;99.90;;;;;;4087414;29;20175;-89
2022/10/13 04:40:54;;;;;;;28.13;13.52;;;13.40;99.90;;;;;;4086962;29;20225;-89
2022/10/13 04:42:55;;;;;;;25.15;13.75;;;13.30;99.90;;;;;;4102581;28;20309;-88
2022/10/13 04:44:55;;;;;;;30.17;13.95;;;13.30;99.90;;;;;;4087075;29;20188;-88
2022/10/13 04:46:59;;;;;;;28.55;14.02;;;13.30;99.90;;;;;;4102755;28;20173;-94
2022/10/13 04:49:00;;;;;;;29.88;13.73;;;13.30;99.90;;;;;;4086055;29;20176;-90
2022/10/13 04:51:08;;;;;;;22.98;13.68;;;13.30;99.90;;;;;;4101748;28;20202;-91
2022/10/13 04:53:08;;;;;;;26.70;13.38;;;13.40;99.90;;;;;;4086966;29;20179;-95
2022/10/13 04:55:09;;;;;;;24.42;13.80;;;13.50;99.90;;;;;;4086353;29;20183;-90
2022/10/13 04:57:10;;;;;;;29.45;14.30;;;13.40;99.90;;;;;;4090465;29;20171;-89
2022/10/13 04:59:10;;;;;;;25.67;13.40;;;13.40;99.90;;;;;;4095670;29;20176;-90
2022/10/13 05:01:17;;;;;;;28.63;13.20;;;13.40;99.90;;;;;;4094249;29;20196;-94
2022/10/13 05:03:17;;;;;;;25.02;13.15;;;13.30;99.90;;;;;;4094201;29;20188;-88
2022/10/13 05:05:18;;;;;;;29.50;13.70;;;13.30;99.90;;;;;;4092996;29;20179;-90
2022/10/13 05:07:19;;;;;;;28.20;13.70;;;13.30;99.90;;;;;;4093140;29;20594;-90
2022/10/13 05:09:21;;;;;;;27.27;13.38;;;13.30;99.90;;;;;;4092984;29;20219;-92
2022/10/13 05:11:23;;;;;;;34.13;14.75;;;13.30;99.90;;;;;;4091189;29;20290;-89
2022/10/13 05:13:25;;;;;;;26.85;13.82;;;13.30;99.90;;;;;;4094092;28;20662;-94
2022/10/13 05:15:25;;;;;;;34.00;13.23;;;13.30;99.90;;;;;;4092186;29;20180;-89
2022/10/13 05:17:29;;;;;;;27.45;12.93;;;13.30;99.90;;;;;;4091766;29;20190;-89
2022/10/13 05:19:30;;;;;;;27.65;13.18;;;13.30;99.90;;;;;;4085325;28;20172;-94
2022/10/13 05:21:31;;;;;;;26.55;13.20;;;13.30;99.90;;;;;;4107659;28;20214;-94
2022/10/13 05:23:32;;;;;;;22.52;13.30;;;13.40;99.90;;;;;;4091792;29;20179;-93
2022/10/13 05:25:34;;;;;;;29.33;13.18;;;13.40;99.90;;;;;;4105568;28;20198;-88
2022/10/13 05:27:35;;;;;;;27.58;12.32;;;13.40;99.90;;;;;;4084774;29;20180;-94
2022/10/13 05:29:39;;;;;;;23.38;12.75;;;13.40;99.90;;;;;;4085031;29;20172;-90
2022/10/13 05:31:40;;;;;;;28.17;11.85;;;13.50;99.90;;;;;;4084403;29;20195;-89
2022/10/13 05:33:41;;;;;;;26.80;12.32;;;13.50;99.90;;;;;;4084793;29;20645;-88
2022/10/13 05:35:42;;;;;;;26.30;11.88;;;13.50;99.90;;;;;;4085296;29;20198;-89
2022/10/13 05:37:42;;;;;;;28.33;12.60;;;13.60;99.90;;;;;;4100328;28;20182;-95
2022/10/13 05:39:43;;;;;;;24.00;12.32;;;13.50;99.90;;;;;;4084665;29;20664;-95
2022/10/13 05:41:44;;;;;;;27.83;12.98;;;13.50;99.90;;;;;;4084072;29;20231;-93
2022/10/13 05:43:56;;;;;;;29.95;12.10;;;13.40;99.90;;;;;;4100283;28;20183;-92
2022/10/13 05:45:58;;;;;;;24.33;11.27;;;13.50;99.90;;;;;;4084036;29;20214;-88
2022/10/13 05:47:59;;;;;;;25.30;11.57;;;13.50;99.90;;;;;;4084275;29;20179;-94
2022/10/13 05:50:00;;;;;;;28.05;12.05;;;13.50;99.90;;;;;;4084446;29;20176;-89
2022/10/13 05:52:07;;;;;;;21.30;11.85;;;13.50;99.90;;;;;;4084813;29;20183;-94
2022/10/13 05:54:19;;;;;;;28.80;13.68;;;13.40;99.90;;;;;;4084218;29;20181;-95
2022/10/13 05:56:25;;;;;;;35.92;13.60;;;13.40;99.90;;;;;;4085621;29;20186;-94
2022/10/13 05:58:25;;;;;;;22.58;12.13;;;13.30;99.90;;;;;;4088329;29;20171;-90
2022/10/13 06:00:27;;;;;;;24.65;12.07;;;13.30;99.90;;;;;;4103331;28;20205;-89
2022/10/13 06:02:36;;;;;;;24.90;11.85;;;13.40;99.90;;;;;;4087486;29;20219;-89
2022/10/13 06:04:41;;;;;;;38.20;19.25;;;13.40;99.90;;;;;;4087703;29;20167;-90
2022/10/13 06:06:42;;;;;;;29.00;12.63;;;13.50;99.90;;;;;;4087457;29;20588;-95
2022/10/13 06:08:43;;;;;;;39.42;12.70;;;13.50;99.90;;;;;;4087198;29;20214;-89
2022/10/13 06:10:44;;;;;;;27.80;12.63;;;13.40;99.90;;;;;;4087181;29;20200;-96
2022/10/13 06:12:45;;;;;;;28.65;11.63;;;13.40;99.90;;;;;;4103010;28;20187;-94
2022/10/13 06:14:46;;;;;;;29.48;12.30;;;13.40;99.90;;;;;;4087029;29;20238;-96
2022/10/13 06:16:46;;;;;;;25.05;12.73;;;13.50;99.90;;;;;;4087296;29;20617;-95
2022/10/13 06:18:47;;;;;;;19.42;11.70;;;13.40;99.90;;;;;;4086685;29;20178;-89
2022/10/13 06:20:48;;;;;;;29.50;10.98;;;13.50;99.90;;;;;;4087140;29;20222;-90
2022/10/13 06:22:49;;;;;;;28.08;12.00;;;13.50;99.90;;;;;;4102817;28;20270;-89
2022/10/13 06:24:50;;;;;;;26.83;12.32;;;13.60;99.90;;;;;;4087202;29;20171;-90
2022/10/13 06:26:51;;;;;;;22.83;12.15;;;13.50;99.90;;;;;;4086790;29;20192;-95
2022/10/13 06:28:51;;;;;;;29.73;12.77;;;13.60;99.90;;;;;;4102816;28;20269;-88
2022/10/13 06:30:55;;;;;;;22.17;10.63;;;13.60;99.90;;;;;;4086879;28;20223;-88
2022/10/13 06:32:56;;;;;;;25.08;12.07;;;13.60;99.90;;;;;;4086999;29;20183;-89
2022/10/13 06:34:56;;;;;;;25.05;12.07;;;13.50;99.90;;;;;;4087030;29;20194;-89
2022/10/13 06:36:57;;;;;;;24.80;11.38;;;13.60;99.90;;;;;;4086452;29;20214;-90
2022/10/13 06:38:58;;;;;;;22.67;11.73;;;13.80;99.90;;;;;;4102553;28;20179;-89
2022/10/13 06:41:00;;;;;;;30.98;12.07;;;13.90;99.90;;;;;;4086855;29;20274;-89
2022/10/13 06:43:03;;;;;;;25.13;11.15;;;13.70;99.90;;;;;;4086776;29;20223;-88
2022/10/13 06:45:06;;;;;;;22.40;10.98;;;13.70;99.90;;;;;;4086733;29;20179;-90
2022/10/13 06:47:07;;;;;;;23.33;11.35;;;13.70;99.90;;;;;;4087140;29;20195;-94
2022/10/13 06:49:09;;;;;;;24.42;11.55;;;13.70;99.90;;;;;;4102481;28;20175;-89
2022/10/13 06:51:11;;;;;;;22.58;10.75;;;13.70;99.90;;;;;;4087099;29;20235;-93
2022/10/13 06:53:11;;;;;;;27.50;11.75;;;13.80;99.90;;;;;;4087072;29;20171;-90
2022/10/13 06:55:12;;;;;;;24.02;11.30;;;13.70;99.90;;;;;;4102523;28;20190;-93
2022/10/13 06:57:13;;;;;;;22.40;11.25;;;13.70;99.90;;;;;;4086607;29;20179;-91
2022/10/13 06:59:13;;;;;;;24.52;10.98;;;13.70;99.90;;;;;;4102462;28;20175;-95
2022/10/13 07:01:18;;;;;;;25.45;11.30;;;13.70;99.90;;;;;;4087026;29;20210;-89
2022/10/13 07:03:18;;;;;;;20.25;10.95;;;13.80;99.90;;;;;;4086478;29;20175;-94
2022/10/13 07:05:19;;;;;;;26.60;10.40;;;13.70;99.90;;;;;;4086596;29;20176;-88
2022/10/13 07:07:20;;;;;;;25.23;10.88;;;13.70;99.90;;;;;;4101793;28;20179;-89
2022/10/13 07:09:21;;;;;;;25.30;10.85;;;13.70;99.90;;;;;;4086906;28;20215;-89
2022/10/13 07:11:22;;;;;;;22.25;10.57;;;13.80;99.90;;;;;;4087455;29;20180;-90
2022/10/13 07:13:25;;;;;;;21.33;10.85;;;13.70;99.90;;;;;;4102276;28;20217;-94
2022/10/13 07:15:25;;;;;;;26.17;10.65;;;13.80;99.90;;;;;;4086773;29;20210;-93
2022/10/13 07:17:26;;;;;;;23.38;10.35;;;13.80;99.90;;;;;;4102437;28;20174;-89
2022/10/13 07:19:27;;;;;;;21.15;10.77;;;14.00;99.90;;;;;;4086290;29;20616;-89
2022/10/13 07:21:28;;;;;;;20.58;10.48;;;14.10;99.90;;;;;;4102091;28;20199;-94
2022/10/13 07:23:29;;;;;;;22.05;10.43;;;14.10;99.90;;;;;;4086444;29;20183;-89
2022/10/13 07:25:30;;;;;;;18.13;10.20;;;14.10;99.90;;;;;;4086514;29;20168;-89
2022/10/13 07:27:30;;;;;;;21.73;9.52;;;14.10;99.90;;;;;;4086139;29;20176;-87
2022/10/13 07:29:31;;;;;;;21.80;11.20;;;14.10;99.90;;;;;;4102238;28;20206;-95
2022/10/13 07:31:32;;;;;;;27.85;10.55;;;14.00;99.90;;;;;;4101835;28;20198;-94
2022/10/13 07:33:33;;;;;;;21.30;10.00;;;14.00;99.90;;;;;;4085978;29;20292;-96
2022/10/13 07:35:37;;;;;;;23.92;9.93;;;14.00;99.90;;;;;;4085983;29;20179;-96
2022/10/13 07:37:38;;;;;;;20.83;10.05;;;14.00;99.90;;;;;;4086095;29;20179;-88
2022/10/13 07:39:38;;;;;;;19.17;9.52;;;14.00;99.90;;;;;;4085777;29;20215;-96
2022/10/13 07:41:40;;;;;;;21.58;9.55;;;14.00;99.90;;;;;;4085645;29;20328;-88
2022/10/13 07:43:41;;;;;;;22.30;10.32;;;14.10;99.90;;;;;;4085803;29;20176;-94
2022/10/13 07:45:42;;;;;;;21.65;10.35;;;14.10;99.90;;;;;;4086040;29;20175;-95
2022/10/13 07:47:42;;;;;;;27.10;9.95;;;14.10;99.90;;;;;;4086006;29;20171;-88
2022/10/13 07:49:43;;;;;;;26.40;9.68;;;14.20;99.90;;;;;;4085987;28;20529;-88
2022/10/13 07:51:44;;;;;;;17.77;9.07;;;14.20;99.90;;;;;;4085566;29;20199;-89
2022/10/13 07:53:45;;;;;;;25.55;9.45;;;14.30;99.90;;;;;;4085786;29;20644;-88
2022/10/13 07:55:46;;;;;;;20.17;9.15;;;14.20;99.90;;;;;;4085673;29;20184;-94
2022/10/13 07:57:46;;;;;;;20.80;9.52;;;14.30;99.90;;;;;;4085814;29;20163;-90
2022/10/13 07:59:47;;;;;;;27.15;10.40;;;14.30;99.90;;;;;;4101349;28;20182;-89
2022/10/13 08:01:49;;;;;;;22.33;9.60;;;14.40;99.90;;;;;;4085648;29;20231;-95
2022/10/13 08:03:55;;;;;;;21.90;9.60;;;14.40;99.90;;;;;;4085937;29;20180;-95
2022/10/13 08:05:59;;;;;;;22.38;9.40;;;14.50;99.90;;;;;;4085488;28;20227;-88
2022/10/13 08:07:59;;;;;;;33.10;10.30;;;14.60;99.90;;;;;;4085302;28;20212;-89
2022/10/13 08:10:00;;;;;;;19.55;9.68;;;14.60;99.90;;;;;;4101097;28;20187;-88
2022/10/13 08:12:01;;;;;;;21.60;8.77;;;14.60;99.90;;;;;;4101004;28;20202;-94
2022/10/13 08:14:02;;;;;;;19.20;10.02;;;14.60;99.90;;;;;;4085225;28;20214;-90
2022/10/13 08:16:03;;;;;;;16.90;9.38;;;14.70;99.90;;;;;;4085411;29;20548;-89
2022/10/13 08:18:04;;;;;;;21.85;9.30;;;14.70;99.90;;;;;;4085045;29;20200;-91
2022/10/13 08:20:05;;;;;;;16.60;8.63;;;14.90;99.90;;;;;;4084794;29;20187;-89
2022/10/13 08:22:08;;;;;;;19.63;8.75;;;14.90;99.90;;;;;;4101106;28;20687;-89
2022/10/13 08:24:12;;;;;;;23.75;9.02;;;15.00;99.90;;;;;;4085691;29;20193;-88
2022/10/13 08:26:23;;;;;;;24.65;9.32;;;15.00;99.90;;;;;;4101211;28;20178;-96
2022/10/13 08:28:30;;;;;;;19.05;8.50;;;15.00;99.90;;;;;;4085061;28;20183;-89
2022/10/13 08:30:31;;;;;;;18.23;8.18;;;15.10;99.90;;;;;;4085126;28;20262;-89
2022/10/13 08:32:31;;;;;;;20.77;8.48;;;15.00;99.90;;;;;;4085152;28;20183;-89
2022/10/13 08:34:32;;;;;;;21.10;8.30;;;15.00;99.90;;;;;;4085709;29;20540;-88
2022/10/13 08:36:33;;;;;;;14.63;7.47;;;15.00;99.90;;;;;;4085286;29;20178;-89
2022/10/13 08:38:34;;;;;;;17.45;7.72;;;14.90;99.90;;;;;;4085241;29;20211;-89
2022/10/13 08:40:37;;;;;;;18.05;8.50;;;15.00;99.90;;;;;;4085208;29;20290;-92
2022/10/13 08:42:42;;;;;;;16.90;8.10;;;15.10;99.90;;;;;;4085336;28;20553;-94
2022/10/13 08:44:48;;;;;;;16.83;7.57;;;15.30;99.90;;;;;;4085447;29;20732;-88
2022/10/13 08:47:12;;;;;;;16.83;8.18;;;15.10;99.90;;;;;;4085360;28;20203;-95
2022/10/13 08:49:15;;;;;;;16.85;7.00;;;15.00;99.90;;;;;;4100806;28;20513;-88
2022/10/13 08:51:16;;;;;;;17.92;7.65;;;15.10;99.90;;;;;;4101647;28;20202;-95
2022/10/13 08:53:47;;;;;;;20.73;7.72;;;15.10;99.90;;;;;;4101006;28;20206;-92
2022/10/13 08:55:50;;;;;;;16.40;7.53;;;15.10;99.90;;;;;;4073158;29;20207;-95
2022/10/13 08:57:51;;;;;;;22.45;8.43;;;15.00;99.90;;;;;;4101248;28;20256;-89
2022/10/13 08:59:54;;;;;;;19.58;7.97;;;15.20;99.90;;;;;;4100555;28;20225;-89
2022/10/13 09:01:56;;;;;;;22.15;7.50;;;15.30;99.90;;;;;;4084708;29;20207;-94
2022/10/13 09:04:03;;;;;;;17.55;7.20;;;15.30;99.90;;;;;;4084711;28;20179;-89
2022/10/13 09:06:17;;;;;;;24.38;7.35;;;15.40;99.90;;;;;;4084636;29;20184;-95
2022/10/13 09:08:19;;;;;;;20.60;7.85;;;15.50;99.90;;;;;;4084677;29;20207;-89
2022/10/13 09:10:20;;;;;;;21.15;7.55;;;15.50;99.90;;;;;;4085013;29;20227;-86
2022/10/13 09:12:25;;;;;;;17.42;7.88;;;15.40;99.90;;;;;;4084161;28;20175;-88
2022/10/13 09:14:26;;;;;;;19.55;7.32;;;15.50;99.90;;;;;;4084706;28;20611;-96
2022/10/13 09:16:39;;;;;;;20.60;7.93;;;15.50;99.90;;;;;;4085077;29;20641;-94
2022/10/13 09:18:43;;;;;;;18.08;7.63;;;15.60;99.90;;;;;;4085026;28;20186;-94
2022/10/13 09:20:48;;;;;;;17.85;7.03;;;15.60;99.90;;;;;;4085058;29;20199;-89
2022/10/13 09:23:19;;;;;;;17.55;6.93;;;15.60;99.90;;;;;;4099922;28;20233;-88
2022/10/13 09:25:21;;;;;;;16.77;7.30;;;15.70;99.90;;;;;;4100232;28;20182;-88
2022/10/13 09:27:22;;;;;;;19.25;7.78;;;15.70;99.90;;;;;;4084917;28;20556;-87
2022/10/13 09:29:25;;;;;;;22.27;7.30;;;15.80;99.90;;;;;;4100422;28;20177;-88
2022/10/13 09:31:29;;;;;;;13.68;7.18;;;15.80;99.90;;;;;;4084714;28;20720;-89
2022/10/13 09:33:34;;;;;;;16.55;7.30;;;15.60;99.90;;;;;;4084390;28;20175;-88
2022/10/13 09:35:37;;;;;;;13.63;6.95;;;15.50;99.90;;;;;;4084678;28;20262;-88
2022/10/13 09:37:38;;;;;;;17.98;7.63;;;15.50;99.90;;;;;;4084537;28;20176;-96
2022/10/13 09:39:39;;;;;;;18.15;7.35;;;15.50;99.90;;;;;;4100309;28;20183;-89
2022/10/13 09:41:41;;;;;;;17.65;7.43;;;15.50;99.90;;;;;;4084247;29;20664;-90
2022/10/13 09:43:44;;;;;;;18.00;8.77;;;15.60;99.90;;;;;;4084227;28;20183;-95
2022/10/13 09:45:52;;;;;;;14.25;7.15;;;15.70;99.90;;;;;;4100745;28;20180;-94
2022/10/13 09:47:57;;;;;;;16.05;7.82;;;15.70;99.90;;;;;;4085668;29;20172;-96
2022/10/13 09:50:17;;;;;;;13.25;7.28;;;15.70;99.90;;;;;;4090178;29;20176;-96
2022/10/13 09:52:20;;;;;;;16.45;7.28;;;15.70;99.90;;;;;;4104656;28;20183;-94
2022/10/13 09:54:35;;;;;;;15.13;6.97;;;15.70;99.90;;;;;;4093017;29;20186;-94
2022/10/13 09:56:45;;;;;;;17.08;7.95;;;15.70;99.90;;;;;;4102543;28;20221;-88
2022/10/13 09:59:04;;;;;;;17.08;7.70;;;15.80;99.90;;;;;;4103327;28;20174;-93
2022/10/13 10:01:15;;;;;;;19.02;9.10;;;16.00;99.90;;;;;;4086687;29;20203;-96
2022/10/13 10:03:23;;;;;;;16.23;7.65;;;16.20;99.90;;;;;;4088979;28;20210;-95
2022/10/13 10:05:44;;;;;;;18.00;8.38;;;16.30;99.90;;;;;;4087021;28;20175;-89
2022/10/13 10:07:46;;;;;;;14.23;7.10;;;16.30;99.90;;;;;;4089518;29;20267;-89
2022/10/13 10:09:53;;;;;;;17.45;8.02;;;16.20;99.90;;;;;;4087585;29;20175;-89
2022/10/13 10:11:56;;;;;;;17.58;8.15;;;16.10;99.90;;;;;;4085320;29;20267;-94
2022/10/13 10:14:00;;;;;;;20.00;8.30;;;15.90;99.90;;;;;;4087245;29;20219;-91
2022/10/13 10:16:18;;;;;;;19.48;9.48;;;16.00;99.90;;;;;;4101681;23;20738;-90
2022/10/13 10:18:44;;;;;;;17.35;8.20;;;16.00;99.90;;;;;;4084087;29;20187;-89
2022/10/13 10:20:55;;;;;;;16.23;8.00;;;15.80;99.90;;;;;;4068243;29;20208;-90
2022/10/13 10:23:02;;;;;;;20.42;9.68;;;15.80;99.90;;;;;;4083923;29;20214;-90
2022/10/13 10:25:33;;;;;;;18.88;8.52;;;15.70;99.90;;;;;;4084201;29;20171;-89
2022/10/13 10:27:44;;;;;;;17.70;9.38;;;15.80;99.90;;;;;;4068296;29;20309;-89
2022/10/13 10:30:12;;;;;;;19.75;8.68;;;15.80;99.90;;;;;;4068114;29;20180;-89
2022/10/13 10:32:34;;;;;;;28.80;19.50;;;16.10;99.90;;;;;;4067892;29;20181;-90
2022/10/13 10:35:14;;;;;;;18.88;9.30;;;16.10;99.90;;;;;;4068398;29;20187;-89